This is the latest recevied weather packets stored in our database for station/object DD6UBW. If no packets are shown the sender has not sent any weather packets the latest 10 day(s).
| Time | Temp. | Humidity | Pressure | Rain* | Wind** | Luminosity | Snow |
|---|---|---|---|---|---|---|---|
| 1777775401 | 10° C | 72% | 1013.6 hPa | 0 mm | - | - | - |
| 1777773601 | 10.56° C | 70% | 1013.6 hPa | 0 mm | - | - | - |
| 1777771800 | 11.67° C | 68% | 1013.6 hPa | 0 mm | - | - | - |
| 1777770001 | 12.22° C | 64% | 1013.6 hPa | 0 mm | - | - | - |
| 1777768201 | 13.89° C | 56% | 1013.6 hPa | 0 mm | - | - | - |
| 1777766401 | 13.89° C | 57% | 1013.6 hPa | 0 mm | - | - | - |
| 1777764601 | 12.22° C | 67% | 1014.6 hPa | 0 mm | - | - | - |
| 1777762801 | 12.22° C | 69% | 1014.6 hPa | 0 mm | - | - | - |
| 1777761001 | 12.78° C | 66% | 1014.6 hPa | 0 mm | - | - | - |
| 1777759201 | 13.33° C | 64% | 1014.6 hPa | 0 mm | - | - | - |
| 1777757401 | 13.89° C | 62% | 1014.6 hPa | 0 mm | - | - | - |
| 1777753800 | 15.56° C | 55% | 1015.6 hPa | 0 mm | - | - | - |
| 1777752001 | 17.22° C | 51% | 1015.6 hPa | 0 mm | - | - | - |
| 1777750201 | 17.78° C | 46% | 1015.6 hPa | 0 mm | - | - | - |
| 1777748402 | 19.44° C | 41% | 1015.6 hPa | 0 mm | - | - | - |
| 1777746600 | 21.67° C | 33% | 1015.6 hPa | 0 mm | - | - | - |
| 1777744801 | 23.89° C | 29% | 1015.6 hPa | 0 mm | - | - | - |
| 1777743001 | 25° C | 27% | 1015.6 hPa | 0 mm | - | - | - |
| 1777741200 | 25.56° C | 26% | 1015.6 hPa | 0 mm | - | - | - |
| 1777739401 | 26.11° C | 24% | 1015.6 hPa | 0 mm | - | - | - |
| 1777737600 | 26.67° C | 25% | 1016.6 hPa | 0 mm | - | - | - |
| 1777735801 | 26.67° C | 26% | 1016.6 hPa | 0 mm | - | - | - |
| 1777734001 | 27.22° C | 26% | 1017.6 hPa | 0 mm | - | - | - |
| 1777732200 | 26.67° C | 25% | 1017.6 hPa | 0 mm | - | - | - |
| 1777730401 | 26.11° C | 26% | 1018.6 hPa | 0 mm | - | - | - |
* Rain since midnight (hover to see other rain measurements)
** Current wind speed in m/s (hover to see current wind gust speed)